sensor_id;sensor_type;location;lat;lon;timestamp;temperature;humidity
14893;DHT22;7538;53.626;9.906;2023-06-14T00:01:46;16.40;99.90
14893;DHT22;7538;53.626;9.906;2023-06-14T00:04:14;16.40;99.90
14893;DHT22;7538;53.626;9.906;2023-06-14T00:06:42;16.40;99.90
14893;DHT22;7538;53.626;9.906;2023-06-14T00:09:10;16.30;99.90
14893;DHT22;7538;53.626;9.906;2023-06-14T00:11:39;16.40;99.90
14893;DHT22;7538;53.626;9.906;2023-06-14T00:14:06;16.30;99.90
14893;DHT22;7538;53.626;9.906;2023-06-14T00:16:33;16.30;99.90
14893;DHT22;7538;53.626;9.906;2023-06-14T00:19:00;16.30;99.90
14893;DHT22;7538;53.626;9.906;2023-06-14T00:21:29;16.20;99.90
14893;DHT22;7538;53.626;9.906;2023-06-14T00:23:55;16.20;99.90
14893;DHT22;7538;53.626;9.906;2023-06-14T00:26:22;16.20;99.90
14893;DHT22;7538;53.626;9.906;2023-06-14T00:28:50;16.10;99.90
14893;DHT22;7538;53.626;9.906;2023-06-14T00:31:17;16.10;99.90
14893;DHT22;7538;53.626;9.906;2023-06-14T00:33:44;16.10;99.90
14893;DHT22;7538;53.626;9.906;2023-06-14T00:36:11;16.10;99.90
14893;DHT22;7538;53.626;9.906;2023-06-14T00:38:38;16.10;99.90
14893;DHT22;7538;53.626;9.906;2023-06-14T00:41:05;16.10;99.90
14893;DHT22;7538;53.626;9.906;2023-06-14T00:43:32;13.90;99.90
14893;DHT22;7538;53.626;9.906;2023-06-14T00:46:01;16.10;99.90
14893;DHT22;7538;53.626;9.906;2023-06-14T00:48:28;16.10;99.90
14893;DHT22;7538;53.626;9.906;2023-06-14T00:50:56;16.00;99.90
14893;DHT22;7538;53.626;9.906;2023-06-14T00:53:23;16.10;99.90
14893;DHT22;7538;53.626;9.906;2023-06-14T00:55:50;16.10;99.90
14893;DHT22;7538;53.626;9.906;2023-06-14T00:58:17;16.10;99.90
14893;DHT22;7538;53.626;9.906;2023-06-14T01:00:44;16.00;99.90
14893;DHT22;7538;53.626;9.906;2023-06-14T01:03:12;16.00;99.90
14893;DHT22;7538;53.626;9.906;2023-06-14T01:05:44;16.00;99.90
14893;DHT22;7538;53.626;9.906;2023-06-14T01:08:21;16.10;99.90
14893;DHT22;7538;53.626;9.906;2023-06-14T01:10:53;16.00;99.90
14893;DHT22;7538;53.626;9.906;2023-06-14T01:13:27;16.00;99.90
14893;DHT22;7538;53.626;9.906;2023-06-14T01:15:56;16.00;99.90
14893;DHT22;7538;53.626;9.906;2023-06-14T01:18:24;16.00;99.90
14893;DHT22;7538;53.626;9.906;2023-06-14T01:20:51;16.10;99.90
14893;DHT22;7538;53.626;9.906;2023-06-14T01:23:22;16.10;99.90
14893;DHT22;7538;53.626;9.906;2023-06-14T01:25:50;16.00;99.90
14893;DHT22;7538;53.626;9.906;2023-06-14T01:28:19;16.00;99.90
14893;DHT22;7538;53.626;9.906;2023-06-14T01:30:49;16.00;99.90
14893;DHT22;7538;53.626;9.906;2023-06-14T01:33:19;16.00;99.90
14893;DHT22;7538;53.626;9.906;2023-06-14T01:35:49;15.90;99.90
14893;DHT22;7538;53.626;9.906;2023-06-14T01:38:17;14.60;99.90
14893;DHT22;7538;53.626;9.906;2023-06-14T01:40:48;15.90;99.90
14893;DHT22;7538;53.626;9.906;2023-06-14T01:43:16;15.90;99.90
14893;DHT22;7538;53.626;9.906;2023-06-14T01:45:47;15.80;99.90
14893;DHT22;7538;53.626;9.906;2023-06-14T01:48:14;15.80;99.90
14893;DHT22;7538;53.626;9.906;2023-06-14T01:50:41;15.80;99.90
14893;DHT22;7538;53.626;9.906;2023-06-14T01:53:09;15.80;99.90
14893;DHT22;7538;53.626;9.906;2023-06-14T01:55:36;15.80;99.90
14893;DHT22;7538;53.626;9.906;2023-06-14T01:58:05;15.80;99.90
14893;DHT22;7538;53.626;9.906;2023-06-14T02:00:32;15.70;99.90
14893;DHT22;7538;53.626;9.906;2023-06-14T02:02:59;15.70;99.90
14893;DHT22;7538;53.626;9.906;2023-06-14T02:05:26;15.70;99.90
14893;DHT22;7538;53.626;9.906;2023-06-14T02:07:52;15.60;99.90
14893;DHT22;7538;53.626;9.906;2023-06-14T02:10:20;15.60;99.90
14893;DHT22;7538;53.626;9.906;2023-06-14T02:12:47;15.60;99.90
14893;DHT22;7538;53.626;9.906;2023-06-14T02:15:15;15.60;99.90
14893;DHT22;7538;53.626;9.906;2023-06-14T02:17:43;15.50;99.90
14893;DHT22;7538;53.626;9.906;2023-06-14T02:20:11;15.50;99.90
14893;DHT22;7538;53.626;9.906;2023-06-14T02:22:38;15.50;99.90
14893;DHT22;7538;53.626;9.906;2023-06-14T02:25:05;15.50;99.90
14893;DHT22;7538;53.626;9.906;2023-06-14T02:27:33;15.40;99.90
14893;DHT22;7538;53.626;9.906;2023-06-14T02:30:00;15.40;99.90
14893;DHT22;7538;53.626;9.906;2023-06-14T02:32:28;18.20;99.90
14893;DHT22;7538;53.626;9.906;2023-06-14T02:34:55;15.30;99.90
14893;DHT22;7538;53.626;9.906;2023-06-14T02:37:22;15.30;99.90
14893;DHT22;7538;53.626;9.906;2023-06-14T02:39:49;15.30;99.90
14893;DHT22;7538;53.626;9.906;2023-06-14T02:42:16;15.20;99.90
14893;DHT22;7538;53.626;9.906;2023-06-14T02:44:43;15.20;99.90
14893;DHT22;7538;53.626;9.906;2023-06-14T02:47:10;15.20;99.90
14893;DHT22;7538;53.626;9.906;2023-06-14T02:49:38;15.20;99.90
14893;DHT22;7538;53.626;9.906;2023-06-14T02:52:06;15.10;99.90
14893;DHT22;7538;53.626;9.906;2023-06-14T02:54:34;15.10;99.90
14893;DHT22;7538;53.626;9.906;2023-06-14T02:57:01;15.10;99.90
14893;DHT22;7538;53.626;9.906;2023-06-14T02:59:28;15.10;99.90
14893;DHT22;7538;53.626;9.906;2023-06-14T03:01:55;15.10;99.90
14893;DHT22;7538;53.626;9.906;2023-06-14T03:04:22;15.00;99.90
14893;DHT22;7538;53.626;9.906;2023-06-14T03:06:52;15.00;99.90
14893;DHT22;7538;53.626;9.906;2023-06-14T03:09:19;15.00;99.90
14893;DHT22;7538;53.626;9.906;2023-06-14T03:11:46;15.00;99.90
14893;DHT22;7538;53.626;9.906;2023-06-14T03:14:13;15.00;99.90
14893;DHT22;7538;53.626;9.906;2023-06-14T03:16:40;15.00;99.90
14893;DHT22;7538;53.626;9.906;2023-06-14T03:19:08;15.00;99.90
14893;DHT22;7538;53.626;9.906;2023-06-14T03:21:35;15.00;99.90
14893;DHT22;7538;53.626;9.906;2023-06-14T03:24:03;15.00;99.90
14893;DHT22;7538;53.626;9.906;2023-06-14T03:26:30;15.00;99.90
14893;DHT22;7538;53.626;9.906;2023-06-14T03:28:59;15.00;99.90
14893;DHT22;7538;53.626;9.906;2023-06-14T03:31:26;15.00;99.90
14893;DHT22;7538;53.626;9.906;2023-06-14T03:33:53;15.00;99.90
14893;DHT22;7538;53.626;9.906;2023-06-14T03:36:19;15.10;99.90
14893;DHT22;7538;53.626;9.906;2023-06-14T03:38:46;15.10;99.90
14893;DHT22;7538;53.626;9.906;2023-06-14T03:41:14;15.10;99.90
14893;DHT22;7538;53.626;9.906;2023-06-14T03:43:41;15.10;99.90
14893;DHT22;7538;53.626;9.906;2023-06-14T03:46:08;15.10;99.90
14893;DHT22;7538;53.626;9.906;2023-06-14T03:48:35;15.20;99.90
14893;DHT22;7538;53.626;9.906;2023-06-14T03:51:02;15.20;99.90
14893;DHT22;7538;53.626;9.906;2023-06-14T03:53:28;15.20;99.90
14893;DHT22;7538;53.626;9.906;2023-06-14T03:55:56;15.30;99.90
14893;DHT22;7538;53.626;9.906;2023-06-14T03:58:24;15.30;99.90
14893;DHT22;7538;53.626;9.906;2023-06-14T04:00:50;15.40;99.90
14893;DHT22;7538;53.626;9.906;2023-06-14T04:03:17;15.40;99.90
14893;DHT22;7538;53.626;9.906;2023-06-14T04:05:45;15.40;99.90
14893;DHT22;7538;53.626;9.906;2023-06-14T04:08:14;15.50;99.90
14893;DHT22;7538;53.626;9.906;2023-06-14T04:10:44;15.50;99.90
14893;DHT22;7538;53.626;9.906;2023-06-14T04:13:11;15.50;99.90
14893;DHT22;7538;53.626;9.906;2023-06-14T04:15:40;15.60;99.90
14893;DHT22;7538;53.626;9.906;2023-06-14T04:18:09;15.60;99.90
14893;DHT22;7538;53.626;9.906;2023-06-14T04:20:36;15.60;99.90
14893;DHT22;7538;53.626;9.906;2023-06-14T04:23:11;15.60;99.90
14893;DHT22;7538;53.626;9.906;2023-06-14T04:25:38;15.70;99.90
14893;DHT22;7538;53.626;9.906;2023-06-14T04:28:05;12.50;99.90
14893;DHT22;7538;53.626;9.906;2023-06-14T04:30:34;15.60;99.90
14893;DHT22;7538;53.626;9.906;2023-06-14T04:33:05;15.70;99.90
14893;DHT22;7538;53.626;9.906;2023-06-14T04:35:32;15.80;99.90
14893;DHT22;7538;53.626;9.906;2023-06-14T04:38:01;15.90;99.90
14893;DHT22;7538;53.626;9.906;2023-06-14T04:40:30;16.00;99.90
14893;DHT22;7538;53.626;9.906;2023-06-14T04:42:57;16.00;99.90
14893;DHT22;7538;53.626;9.906;2023-06-14T04:45:24;16.10;99.90
14893;DHT22;7538;53.626;9.906;2023-06-14T04:47:58;16.20;99.90
14893;DHT22;7538;53.626;9.906;2023-06-14T04:50:27;16.30;99.90
14893;DHT22;7538;53.626;9.906;2023-06-14T04:52:55;16.50;99.90
14893;DHT22;7538;53.626;9.906;2023-06-14T04:55:22;16.60;99.90
14893;DHT22;7538;53.626;9.906;2023-06-14T04:57:50;16.60;99.90
14893;DHT22;7538;53.626;9.906;2023-06-14T05:00:19;16.80;99.90
14893;DHT22;7538;53.626;9.906;2023-06-14T05:02:46;17.20;99.90
14893;DHT22;7538;53.626;9.906;2023-06-14T05:05:16;17.70;99.90
14893;DHT22;7538;53.626;9.906;2023-06-14T05:07:46;18.10;99.90
14893;DHT22;7538;53.626;9.906;2023-06-14T05:10:13;18.70;99.90
14893;DHT22;7538;53.626;9.906;2023-06-14T05:12:40;19.20;99.90
14893;DHT22;7538;53.626;9.906;2023-06-14T05:15:09;19.40;99.90
14893;DHT22;7538;53.626;9.906;2023-06-14T05:17:36;19.60;99.90
14893;DHT22;7538;53.626;9.906;2023-06-14T05:20:04;19.60;99.90
14893;DHT22;7538;53.626;9.906;2023-06-14T05:22:32;19.70;99.90
14893;DHT22;7538;53.626;9.906;2023-06-14T05:25:00;19.80;99.90
14893;DHT22;7538;53.626;9.906;2023-06-14T05:27:28;20.00;99.90
14893;DHT22;7538;53.626;9.906;2023-06-14T05:29:55;20.30;99.90
14893;DHT22;7538;53.626;9.906;2023-06-14T05:32:24;20.80;99.90
14893;DHT22;7538;53.626;9.906;2023-06-14T05:34:51;21.90;99.90
14893;DHT22;7538;53.626;9.906;2023-06-14T05:37:18;22.00;97.60
14893;DHT22;7538;53.626;9.906;2023-06-14T05:39:44;24.20;93.30
14893;DHT22;7538;53.626;9.906;2023-06-14T05:42:13;25.20;90.80
14893;DHT22;7538;53.626;9.906;2023-06-14T05:44:39;26.20;86.90
14893;DHT22;7538;53.626;9.906;2023-06-14T05:47:06;26.90;84.00
14893;DHT22;7538;53.626;9.906;2023-06-14T05:49:33;27.50;80.90
14893;DHT22;7538;53.626;9.906;2023-06-14T05:52:00;28.30;77.90
14893;DHT22;7538;53.626;9.906;2023-06-14T05:54:27;29.00;74.00
14893;DHT22;7538;53.626;9.906;2023-06-14T05:56:54;29.70;69.90
14893;DHT22;7538;53.626;9.906;2023-06-14T05:59:22;30.40;67.20
14893;DHT22;7538;53.626;9.906;2023-06-14T06:01:49;30.70;64.60
14893;DHT22;7538;53.626;9.906;2023-06-14T06:04:15;31.10;63.30
14893;DHT22;7538;53.626;9.906;2023-06-14T06:06:42;31.40;61.40
14893;DHT22;7538;53.626;9.906;2023-06-14T06:09:09;31.70;59.00
14893;DHT22;7538;53.626;9.906;2023-06-14T06:11:36;31.60;58.40
14893;DHT22;7538;53.626;9.906;2023-06-14T06:14:03;31.90;57.70
14893;DHT22;7538;53.626;9.906;2023-06-14T06:16:31;32.50;57.30
14893;DHT22;7538;53.626;9.906;2023-06-14T06:18:58;33.20;55.40
14893;DHT22;7538;53.626;9.906;2023-06-14T06:21:25;34.00;53.70
14893;DHT22;7538;53.626;9.906;2023-06-14T06:23:52;34.60;51.60
14893;DHT22;7538;53.626;9.906;2023-06-14T06:26:21;35.10;50.50
14893;DHT22;7538;53.626;9.906;2023-06-14T06:28:48;35.40;49.00
14893;DHT22;7538;53.626;9.906;2023-06-14T06:31:15;35.70;48.20
14893;DHT22;7538;53.626;9.906;2023-06-14T06:33:43;35.70;46.70
14893;DHT22;7538;53.626;9.906;2023-06-14T06:36:10;35.60;47.30
14893;DHT22;7538;53.626;9.906;2023-06-14T06:38:36;35.90;46.70
14893;DHT22;7538;53.626;9.906;2023-06-14T06:41:03;36.20;44.90
14893;DHT22;7538;53.626;9.906;2023-06-14T06:43:30;36.40;44.20
14893;DHT22;7538;53.626;9.906;2023-06-14T06:45:57;36.60;43.30
14893;DHT22;7538;53.626;9.906;2023-06-14T06:48:23;36.50;42.40
14893;DHT22;7538;53.626;9.906;2023-06-14T06:50:51;36.50;42.10
14893;DHT22;7538;53.626;9.906;2023-06-14T06:53:19;36.60;41.90
14893;DHT22;7538;53.626;9.906;2023-06-14T06:55:45;36.70;41.60
14893;DHT22;7538;53.626;9.906;2023-06-14T06:58:13;36.70;40.70
14893;DHT22;7538;53.626;9.906;2023-06-14T07:00:40;36.60;41.60
14893;DHT22;7538;53.626;9.906;2023-06-14T07:03:07;36.20;39.70
14893;DHT22;7538;53.626;9.906;2023-06-14T07:05:34;36.20;40.90
14893;DHT22;7538;53.626;9.906;2023-06-14T07:08:03;36.60;40.40
14893;DHT22;7538;53.626;9.906;2023-06-14T07:10:30;37.20;39.90
14893;DHT22;7538;53.626;9.906;2023-06-14T07:12:56;37.70;39.60
14893;DHT22;7538;53.626;9.906;2023-06-14T07:15:23;37.60;38.00
14893;DHT22;7538;53.626;9.906;2023-06-14T07:17:50;37.00;38.70
14893;DHT22;7538;53.626;9.906;2023-06-14T07:20:18;37.00;39.20
14893;DHT22;7538;53.626;9.906;2023-06-14T07:22:47;37.20;38.20
14893;DHT22;7538;53.626;9.906;2023-06-14T07:25:15;37.10;38.30
14893;DHT22;7538;53.626;9.906;2023-06-14T07:27:46;37.00;37.40
14893;DHT22;7538;53.626;9.906;2023-06-14T07:30:13;36.40;37.20
14893;DHT22;7538;53.626;9.906;2023-06-14T07:32:40;36.40;37.80
14893;DHT22;7538;53.626;9.906;2023-06-14T07:35:07;36.20;37.00
14893;DHT22;7538;53.626;9.906;2023-06-14T07:37:34;35.50;37.30
14893;DHT22;7538;53.626;9.906;2023-06-14T07:40:01;35.20;37.30
14893;DHT22;7538;53.626;9.906;2023-06-14T07:42:33;34.20;37.90
14893;DHT22;7538;53.626;9.906;2023-06-14T07:45:00;34.00;38.80
14893;DHT22;7538;53.626;9.906;2023-06-14T07:47:27;34.00;39.10
14893;DHT22;7538;53.626;9.906;2023-06-14T07:49:54;34.30;38.70
14893;DHT22;7538;53.626;9.906;2023-06-14T07:52:21;34.60;38.80
14893;DHT22;7538;53.626;9.906;2023-06-14T07:54:47;34.60;38.00
14893;DHT22;7538;53.626;9.906;2023-06-14T07:57:14;34.70;38.00
14893;DHT22;7538;53.626;9.906;2023-06-14T07:59:42;35.20;38.10
14893;DHT22;7538;53.626;9.906;2023-06-14T08:02:09;35.20;37.00
14893;DHT22;7538;53.626;9.906;2023-06-14T08:04:36;35.10;36.80
14893;DHT22;7538;53.626;9.906;2023-06-14T08:07:03;34.40;37.60
14893;DHT22;7538;53.626;9.906;2023-06-14T08:09:30;34.10;37.90
14893;DHT22;7538;53.626;9.906;2023-06-14T08:11:57;34.60;38.30
14893;DHT22;7538;53.626;9.906;2023-06-14T08:14:24;34.90;37.00
14893;DHT22;7538;53.626;9.906;2023-06-14T08:16:52;34.50;37.30
14893;DHT22;7538;53.626;9.906;2023-06-14T08:19:19;34.80;37.40
14893;DHT22;7538;53.626;9.906;2023-06-14T08:21:46;35.50;36.80
14893;DHT22;7538;53.626;9.906;2023-06-14T08:24:12;35.60;36.50
14893;DHT22;7538;53.626;9.906;2023-06-14T08:26:39;36.10;36.50
14893;DHT22;7538;53.626;9.906;2023-06-14T08:29:06;36.30;36.50
14893;DHT22;7538;53.626;9.906;2023-06-14T08:31:33;36.50;35.50
14893;DHT22;7538;53.626;9.906;2023-06-14T08:34:01;36.60;35.20
14893;DHT22;7538;53.626;9.906;2023-06-14T08:36:28;36.80;34.80
14893;DHT22;7538;53.626;9.906;2023-06-14T08:38:55;37.00;34.80
14893;DHT22;7538;53.626;9.906;2023-06-14T08:41:22;36.70;35.20
14893;DHT22;7538;53.626;9.906;2023-06-14T08:43:50;36.50;34.70
14893;DHT22;7538;53.626;9.906;2023-06-14T08:46:18;35.80;34.60
14893;DHT22;7538;53.626;9.906;2023-06-14T08:48:49;35.30;35.20
14893;DHT22;7538;53.626;9.906;2023-06-14T08:51:18;34.90;35.40
14893;DHT22;7538;53.626;9.906;2023-06-14T08:53:51;34.30;36.60
14893;DHT22;7538;53.626;9.906;2023-06-14T08:56:19;33.90;36.60
14893;DHT22;7538;53.626;9.906;2023-06-14T08:58:47;34.10;36.90
14893;DHT22;7538;53.626;9.906;2023-06-14T09:01:15;34.30;37.90
14893;DHT22;7538;53.626;9.906;2023-06-14T09:03:43;34.30;36.80
14893;DHT22;7538;53.626;9.906;2023-06-14T09:06:10;34.60;37.00
14893;DHT22;7538;53.626;9.906;2023-06-14T09:08:41;34.50;37.30
14893;DHT22;7538;53.626;9.906;2023-06-14T09:11:10;35.00;36.70
14893;DHT22;7538;53.626;9.906;2023-06-14T09:13:38;36.00;36.10
14893;DHT22;7538;53.626;9.906;2023-06-14T09:16:05;36.60;34.80
14893;DHT22;7538;53.626;9.906;2023-06-14T09:18:36;37.00;35.00
14893;DHT22;7538;53.626;9.906;2023-06-14T09:21:03;37.20;33.80
14893;DHT22;7538;53.626;9.906;2023-06-14T09:23:36;37.20;33.60
14893;DHT22;7538;53.626;9.906;2023-06-14T09:26:08;36.60;34.50
14893;DHT22;7538;53.626;9.906;2023-06-14T09:28:35;36.50;33.90
14893;DHT22;7538;53.626;9.906;2023-06-14T09:31:02;36.70;34.40
14893;DHT22;7538;53.626;9.906;2023-06-14T09:33:30;36.30;34.00
14893;DHT22;7538;53.626;9.906;2023-06-14T09:35:57;35.90;34.50
14893;DHT22;7538;53.626;9.906;2023-06-14T09:38:25;35.70;35.40
14893;DHT22;7538;53.626;9.906;2023-06-14T09:40:52;35.40;35.70
14893;DHT22;7538;53.626;9.906;2023-06-14T09:43:21;34.90;36.20
14893;DHT22;7538;53.626;9.906;2023-06-14T09:45:48;34.20;37.00
14893;DHT22;7538;53.626;9.906;2023-06-14T09:48:15;33.90;36.90
14893;DHT22;7538;53.626;9.906;2023-06-14T09:50:45;33.90;37.00
14893;DHT22;7538;53.626;9.906;2023-06-14T09:53:14;34.70;37.20
14893;DHT22;7538;53.626;9.906;2023-06-14T09:55:42;35.10;37.00
14893;DHT22;7538;53.626;9.906;2023-06-14T09:58:10;35.40;36.30
14893;DHT22;7538;53.626;9.906;2023-06-14T10:00:39;35.80;35.40
14893;DHT22;7538;53.626;9.906;2023-06-14T10:03:12;35.60;34.80
14893;DHT22;7538;53.626;9.906;2023-06-14T10:05:42;35.80;35.00
14893;DHT22;7538;53.626;9.906;2023-06-14T10:08:12;35.70;34.30
14893;DHT22;7538;53.626;9.906;2023-06-14T10:10:41;34.70;35.50
14893;DHT22;7538;53.626;9.906;2023-06-14T10:13:09;34.50;36.20
14893;DHT22;7538;53.626;9.906;2023-06-14T10:15:48;34.50;36.30
14893;DHT22;7538;53.626;9.906;2023-06-14T10:18:24;34.30;36.00
14893;DHT22;7538;53.626;9.906;2023-06-14T10:21:01;34.50;36.40
14893;DHT22;7538;53.626;9.906;2023-06-14T10:23:30;34.20;36.70
14893;DHT22;7538;53.626;9.906;2023-06-14T10:25:59;34.30;36.70
14893;DHT22;7538;53.626;9.906;2023-06-14T10:28:26;33.90;36.60
14893;DHT22;7538;53.626;9.906;2023-06-14T10:31:04;33.30;36.90
14893;DHT22;7538;53.626;9.906;2023-06-14T10:33:32;33.40;37.80
14893;DHT22;7538;53.626;9.906;2023-06-14T10:36:09;33.60;36.50
14893;DHT22;7538;53.626;9.906;2023-06-14T10:38:37;34.30;36.20
14893;DHT22;7538;53.626;9.906;2023-06-14T10:41:04;34.80;36.70
14893;DHT22;7538;53.626;9.906;2023-06-14T10:43:32;34.60;36.00
14893;DHT22;7538;53.626;9.906;2023-06-14T10:46:16;34.80;36.60
14893;DHT22;7538;53.626;9.906;2023-06-14T10:48:44;34.50;35.40
14893;DHT22;7538;53.626;9.906;2023-06-14T10:51:18;34.30;36.00
14893;DHT22;7538;53.626;9.906;2023-06-14T10:53:48;33.40;36.60
14893;DHT22;7538;53.626;9.906;2023-06-14T10:56:27;32.60;37.70
14893;DHT22;7538;53.626;9.906;2023-06-14T10:58:54;31.90;38.20
14893;DHT22;7538;53.626;9.906;2023-06-14T11:01:35;31.30;38.80
14893;DHT22;7538;53.626;9.906;2023-06-14T11:04:10;30.40;39.30
14893;DHT22;7538;53.626;9.906;2023-06-14T11:06:46;29.90;40.50
14893;DHT22;7538;53.626;9.906;2023-06-14T11:12:23;29.70;40.60
14893;DHT22;7538;53.626;9.906;2023-06-14T11:14:52;29.60;40.80
14893;DHT22;7538;53.626;9.906;2023-06-14T11:17:20;29.20;41.20
14893;DHT22;7538;53.626;9.906;2023-06-14T11:19:47;29.30;42.20
14893;DHT22;7538;53.626;9.906;2023-06-14T11:22:13;29.80;41.90
14893;DHT22;7538;53.626;9.906;2023-06-14T11:24:43;30.30;41.70
14893;DHT22;7538;53.626;9.906;2023-06-14T11:27:10;30.20;41.30
14893;DHT22;7538;53.626;9.906;2023-06-14T11:29:36;29.90;41.70
14893;DHT22;7538;53.626;9.906;2023-06-14T11:32:07;29.30;41.30
14893;DHT22;7538;53.626;9.906;2023-06-14T11:34:39;28.90;41.90
14893;DHT22;7538;53.626;9.906;2023-06-14T11:37:06;28.40;43.30
14893;DHT22;7538;53.626;9.906;2023-06-14T11:39:33;28.10;44.30
14893;DHT22;7538;53.626;9.906;2023-06-14T11:42:01;28.00;44.30
14893;DHT22;7538;53.626;9.906;2023-06-14T11:44:29;28.00;44.40
14893;DHT22;7538;53.626;9.906;2023-06-14T11:46:56;28.20;45.20
14893;DHT22;7538;53.626;9.906;2023-06-14T11:49:23;28.40;44.30
14893;DHT22;7538;53.626;9.906;2023-06-14T11:51:54;28.20;43.80
14893;DHT22;7538;53.626;9.906;2023-06-14T11:54:21;28.10;44.00
14893;DHT22;7538;53.626;9.906;2023-06-14T11:56:47;28.10;44.80
14893;DHT22;7538;53.626;9.906;2023-06-14T11:59:14;28.00;45.40
14893;DHT22;7538;53.626;9.906;2023-06-14T12:01:43;27.90;45.20
14893;DHT22;7538;53.626;9.906;2023-06-14T12:04:10;27.70;44.80
14893;DHT22;7538;53.626;9.906;2023-06-14T12:06:37;27.60;45.20
14893;DHT22;7538;53.626;9.906;2023-06-14T12:09:06;27.40;45.10
14893;DHT22;7538;53.626;9.906;2023-06-14T12:11:38;27.10;45.80
14893;DHT22;7538;53.626;9.906;2023-06-14T12:14:05;27.00;45.80
14893;DHT22;7538;53.626;9.906;2023-06-14T12:16:33;26.70;46.60
14893;DHT22;7538;53.626;9.906;2023-06-14T12:19:01;26.70;46.70
14893;DHT22;7538;53.626;9.906;2023-06-14T12:21:37;27.00;47.00
14893;DHT22;7538;53.626;9.906;2023-06-14T12:24:06;27.30;47.10
14893;DHT22;7538;53.626;9.906;2023-06-14T12:26:33;27.20;45.90
14893;DHT22;7538;53.626;9.906;2023-06-14T12:29:05;27.00;45.90
14893;DHT22;7538;53.626;9.906;2023-06-14T12:31:32;26.80;46.70
14893;DHT22;7538;53.626;9.906;2023-06-14T12:33:59;26.90;45.90
14893;DHT22;7538;53.626;9.906;2023-06-14T12:36:26;27.00;46.30
14893;DHT22;7538;53.626;9.906;2023-06-14T12:38:52;27.20;46.00
14893;DHT22;7538;53.626;9.906;2023-06-14T12:41:21;27.00;46.70
14893;DHT22;7538;53.626;9.906;2023-06-14T12:43:48;27.00;47.30
14893;DHT22;7538;53.626;9.906;2023-06-14T12:46:14;27.00;47.10
14893;DHT22;7538;53.626;9.906;2023-06-14T12:48:41;26.80;47.10
14893;DHT22;7538;53.626;9.906;2023-06-14T12:51:08;26.80;47.80
14893;DHT22;7538;53.626;9.906;2023-06-14T12:53:35;27.10;47.60
14893;DHT22;7538;53.626;9.906;2023-06-14T12:56:01;27.40;46.80
14893;DHT22;7538;53.626;9.906;2023-06-14T12:58:30;27.60;46.50
14893;DHT22;7538;53.626;9.906;2023-06-14T13:00:56;27.60;46.70
14893;DHT22;7538;53.626;9.906;2023-06-14T13:03:23;27.40;46.70
14893;DHT22;7538;53.626;9.906;2023-06-14T13:05:50;27.10;46.70
14893;DHT22;7538;53.626;9.906;2023-06-14T13:08:17;27.00;47.30
14893;DHT22;7538;53.626;9.906;2023-06-14T13:10:44;26.40;48.10
14893;DHT22;7538;53.626;9.906;2023-06-14T13:13:10;26.20;48.60
14893;DHT22;7538;53.626;9.906;2023-06-14T13:15:39;26.20;49.00
14893;DHT22;7538;53.626;9.906;2023-06-14T13:18:06;26.10;49.90
14893;DHT22;7538;53.626;9.906;2023-06-14T13:20:33;26.10;50.00
14893;DHT22;7538;53.626;9.906;2023-06-14T13:22:59;26.10;48.50
14893;DHT22;7538;53.626;9.906;2023-06-14T13:25:27;26.20;49.00
14893;DHT22;7538;53.626;9.906;2023-06-14T13:27:54;26.50;48.70
14893;DHT22;7538;53.626;9.906;2023-06-14T13:30:21;26.80;48.20
14893;DHT22;7538;53.626;9.906;2023-06-14T13:32:49;27.10;48.10
14893;DHT22;7538;53.626;9.906;2023-06-14T13:35:17;27.30;47.20
14893;DHT22;7538;53.626;9.906;2023-06-14T13:37:44;27.20;47.10
14893;DHT22;7538;53.626;9.906;2023-06-14T13:40:12;26.90;47.40
14893;DHT22;7538;53.626;9.906;2023-06-14T13:42:39;26.50;47.60
14893;DHT22;7538;53.626;9.906;2023-06-14T13:45:07;26.40;48.20
14893;DHT22;7538;53.626;9.906;2023-06-14T13:47:34;26.50;48.50
14893;DHT22;7538;53.626;9.906;2023-06-14T13:50:02;26.60;48.70
14893;DHT22;7538;53.626;9.906;2023-06-14T13:52:29;26.60;48.40
14893;DHT22;7538;53.626;9.906;2023-06-14T13:54:56;26.70;48.30
14893;DHT22;7538;53.626;9.906;2023-06-14T13:57:23;26.80;47.70
14893;DHT22;7538;53.626;9.906;2023-06-14T13:59:51;26.60;47.30
14893;DHT22;7538;53.626;9.906;2023-06-14T14:02:19;26.70;47.40
14893;DHT22;7538;53.626;9.906;2023-06-14T14:04:46;26.80;46.60
14893;DHT22;7538;53.626;9.906;2023-06-14T14:07:19;27.00;45.70
14893;DHT22;7538;53.626;9.906;2023-06-14T14:09:48;27.20;46.70
14893;DHT22;7538;53.626;9.906;2023-06-14T14:12:14;27.30;46.20
14893;DHT22;7538;53.626;9.906;2023-06-14T14:14:41;27.30;45.40
14893;DHT22;7538;53.626;9.906;2023-06-14T14:17:08;27.20;45.30
14893;DHT22;7538;53.626;9.906;2023-06-14T14:19:34;27.10;45.10
14893;DHT22;7538;53.626;9.906;2023-06-14T14:22:02;27.10;45.90
14893;DHT22;7538;53.626;9.906;2023-06-14T14:24:30;27.20;46.10
14893;DHT22;7538;53.626;9.906;2023-06-14T14:26:57;27.30;46.00
14893;DHT22;7538;53.626;9.906;2023-06-14T14:29:25;27.40;45.70
14893;DHT22;7538;53.626;9.906;2023-06-14T14:31:54;27.50;45.00
14893;DHT22;7538;53.626;9.906;2023-06-14T14:34:21;27.40;44.90
14893;DHT22;7538;53.626;9.906;2023-06-14T14:36:48;27.40;44.90
14893;DHT22;7538;53.626;9.906;2023-06-14T14:39:15;27.10;43.90
14893;DHT22;7538;53.626;9.906;2023-06-14T14:41:43;27.00;45.00
14893;DHT22;7538;53.626;9.906;2023-06-14T14:44:10;27.00;45.20
14893;DHT22;7538;53.626;9.906;2023-06-14T14:46:37;27.00;44.90
14893;DHT22;7538;53.626;9.906;2023-06-14T14:49:04;27.10;45.20
14893;DHT22;7538;53.626;9.906;2023-06-14T14:51:31;27.10;45.30
14893;DHT22;7538;53.626;9.906;2023-06-14T14:53:57;27.10;45.10
14893;DHT22;7538;53.626;9.906;2023-06-14T14:56:24;27.00;44.90
14893;DHT22;7538;53.626;9.906;2023-06-14T14:58:54;27.00;45.10
14893;DHT22;7538;53.626;9.906;2023-06-14T15:01:20;28.10;46.00
14893;DHT22;7538;53.626;9.906;2023-06-14T15:03:47;26.70;45.00
14893;DHT22;7538;53.626;9.906;2023-06-14T15:06:14;26.60;45.20
14893;DHT22;7538;53.626;9.906;2023-06-14T15:08:43;26.50;45.60
14893;DHT22;7538;53.626;9.906;2023-06-14T15:11:10;26.40;45.20
14893;DHT22;7538;53.626;9.906;2023-06-14T15:13:37;26.40;45.80
14893;DHT22;7538;53.626;9.906;2023-06-14T15:16:05;26.40;45.40
14893;DHT22;7538;53.626;9.906;2023-06-14T15:18:32;26.40;45.50
14893;DHT22;7538;53.626;9.906;2023-06-14T15:20:59;26.50;45.70
14893;DHT22;7538;53.626;9.906;2023-06-14T15:23:25;26.50;44.90
14893;DHT22;7538;53.626;9.906;2023-06-14T15:25:52;26.30;45.00
14893;DHT22;7538;53.626;9.906;2023-06-14T15:28:19;26.00;45.40
14893;DHT22;7538;53.626;9.906;2023-06-14T15:30:47;25.80;45.80
14893;DHT22;7538;53.626;9.906;2023-06-14T15:33:15;25.70;45.70
14893;DHT22;7538;53.626;9.906;2023-06-14T15:35:42;25.70;46.10
14893;DHT22;7538;53.626;9.906;2023-06-14T15:38:08;25.80;45.60
14893;DHT22;7538;53.626;9.906;2023-06-14T15:40:35;25.70;46.00
14893;DHT22;7538;53.626;9.906;2023-06-14T15:43:02;25.60;46.00
14893;DHT22;7538;53.626;9.906;2023-06-14T15:45:29;25.60;46.00
14893;DHT22;7538;53.626;9.906;2023-06-14T15:47:57;25.50;46.10
14893;DHT22;7538;53.626;9.906;2023-06-14T15:50:26;25.50;46.30
14893;DHT22;7538;53.626;9.906;2023-06-14T15:52:53;25.50;46.20